createdAt,value
2018-11-20T00:01:50.408Z,16.70
2018-11-20T00:08:03.930Z,17.63
2018-11-20T00:14:17.256Z,18.20
2018-11-20T00:17:24.560Z,17.77
2018-11-20T00:20:31.867Z,17.83
2018-11-20T00:23:39.143Z,18.93
2018-11-20T00:26:46.447Z,18.40
2018-11-20T00:29:53.752Z,18.43
2018-11-20T00:33:01.031Z,19.63
2018-11-20T00:36:08.330Z,18.67
2018-11-20T00:39:07.468Z,19.07
2018-11-20T00:42:14.737Z,19.20
2018-11-20T00:45:22.044Z,19.37
2018-11-20T00:48:29.332Z,19.53
2018-11-20T00:51:36.629Z,20.13
2018-11-20T00:54:43.944Z,20.07
2018-11-20T00:57:51.210Z,19.63
2018-11-20T01:00:58.515Z,20.33
2018-11-20T01:04:05.796Z,20.27
2018-11-20T01:07:13.114Z,20.17
2018-11-20T01:10:20.440Z,20.57
2018-11-20T01:13:27.719Z,19.70
2018-11-20T01:16:35.034Z,18.87
2018-11-20T01:19:42.356Z,20.80
2018-11-20T01:22:49.657Z,17.67
2018-11-20T01:25:56.955Z,18.57
2018-11-20T01:28:55.187Z,19.73
2018-11-20T01:32:02.492Z,20.00
2018-11-20T01:35:09.800Z,19.87
2018-11-20T01:38:17.068Z,18.40
2018-11-20T01:41:24.512Z,18.60
2018-11-20T01:44:31.718Z,19.57
2018-11-20T01:47:39.013Z,19.23
2018-11-20T01:50:46.315Z,19.20
2018-11-20T01:53:53.595Z,18.97
2018-11-20T01:57:00.894Z,19.63
2018-11-20T02:00:08.194Z,19.20
2018-11-20T02:03:15.479Z,18.93
2018-11-20T02:06:22.775Z,17.20
2018-11-20T02:09:30.052Z,17.50
2018-11-20T02:12:37.356Z,16.90
2018-11-20T02:15:44.654Z,15.40
2018-11-20T02:18:51.926Z,15.67
2018-11-20T02:25:08.575Z,14.43
2018-11-20T02:28:15.876Z,15.30
2018-11-20T02:31:23.174Z,14.20
2018-11-20T02:34:30.650Z,13.97
2018-11-20T02:37:37.940Z,13.73
2018-11-20T02:43:50.395Z,14.07
2018-11-20T02:46:57.689Z,15.10
2018-11-20T02:50:04.970Z,14.43
2018-11-20T02:53:12.336Z,14.73
2018-11-20T02:56:19.651Z,15.07
2018-11-20T02:59:26.930Z,13.30
2018-11-20T03:02:34.225Z,13.73
2018-11-20T03:05:41.525Z,14.27
2018-11-20T03:08:48.802Z,15.53
2018-11-20T03:11:56.104Z,16.67
2018-11-20T03:15:03.386Z,16.73
2018-11-20T03:18:10.690Z,16.80
2018-11-20T03:21:06.836Z,17.90
2018-11-20T03:24:14.113Z,16.73
2018-11-20T03:27:21.409Z,17.10
2018-11-20T03:30:47.705Z,16.67
2018-11-20T03:33:55.025Z,17.40
2018-11-20T03:37:02.322Z,15.63
2018-11-20T03:40:09.603Z,16.57
2018-11-20T03:43:16.899Z,16.47
2018-11-20T03:46:24.205Z,15.10
2018-11-20T03:49:31.480Z,16.90
2018-11-20T03:52:38.778Z,16.00
2018-11-20T03:55:46.078Z,16.10
2018-11-20T03:58:53.377Z,16.10
2018-11-20T04:02:00.674Z,16.97
2018-11-20T04:05:07.966Z,16.07
2018-11-20T04:08:15.280Z,15.90
2018-11-20T04:11:22.580Z,15.67
2018-11-20T04:14:29.880Z,15.67
2018-11-20T04:17:37.202Z,16.93
2018-11-20T04:20:44.476Z,17.03
2018-11-20T04:23:51.778Z,15.40
2018-11-20T04:26:57.591Z,16.00
2018-11-20T04:30:04.891Z,15.97
2018-11-20T04:33:31.188Z,16.27
2018-11-20T04:36:38.498Z,14.87
2018-11-20T04:39:45.769Z,15.90
2018-11-20T04:42:49.685Z,15.67
2018-11-20T04:45:52.548Z,15.63
2018-11-20T04:48:50.952Z,15.30
2018-11-20T04:51:58.250Z,14.60
2018-11-20T04:55:05.529Z,13.87
2018-11-20T04:58:12.822Z,13.73
2018-11-20T05:01:20.108Z,14.80
2018-11-20T05:04:27.402Z,13.70
2018-11-20T05:07:34.708Z,14.50
2018-11-20T05:10:41.984Z,14.77
2018-11-20T05:13:49.278Z,14.13
2018-11-20T05:16:56.598Z,14.80
2018-11-20T05:20:03.873Z,14.87
2018-11-20T05:23:11.168Z,14.13
2018-11-20T05:26:18.450Z,15.33
2018-11-20T05:29:25.766Z,14.43
2018-11-20T05:32:33.063Z,14.83
2018-11-20T05:35:40.335Z,14.83
2018-11-20T05:38:47.645Z,14.47
2018-11-20T05:41:54.942Z,15.90
2018-11-20T05:45:02.235Z,16.03
2018-11-20T05:48:09.541Z,16.93
2018-11-20T05:51:16.833Z,16.10
2018-11-20T05:54:24.130Z,16.20
2018-11-20T05:57:31.431Z,16.30
2018-11-20T06:00:33.613Z,17.23
2018-11-20T06:03:40.933Z,17.57
2018-11-20T06:06:48.208Z,17.13
2018-11-20T06:09:55.516Z,17.43
2018-11-20T06:13:02.810Z,17.83
2018-11-20T06:16:10.083Z,17.33
2018-11-20T06:19:17.386Z,17.57
2018-11-20T06:22:16.883Z,17.27
2018-11-20T06:25:04.272Z,17.40
2018-11-20T06:28:04.287Z,17.57
2018-11-20T06:31:04.116Z,17.60
2018-11-20T06:33:55.987Z,17.00
2018-11-20T06:36:55.747Z,17.23
2018-11-20T06:46:00.511Z,18.10
2018-11-20T06:49:00.037Z,19.57
2018-11-20T06:51:53.319Z,18.30
2018-11-20T06:54:52.809Z,18.43
2018-11-20T06:57:52.568Z,18.30
2018-11-20T07:00:52.584Z,17.43
2018-11-20T07:03:52.146Z,18.53
2018-11-20T07:06:52.414Z,18.53
2018-11-20T07:09:52.316Z,18.10
2018-11-20T07:12:52.159Z,18.60
2018-11-20T07:15:52.271Z,18.07
2018-11-20T07:18:54.959Z,16.40
2018-11-20T07:22:01.060Z,17.43
2018-11-20T07:24:56.124Z,16.30
2018-11-20T07:27:55.849Z,18.07
2018-11-20T07:30:55.700Z,16.63
2018-11-20T07:33:55.597Z,16.07
2018-11-20T07:36:55.636Z,16.63
2018-11-20T07:39:55.315Z,16.17
2018-11-20T07:42:55.561Z,15.37
2018-11-20T07:45:50.107Z,15.83
2018-11-20T07:48:45.803Z,15.17
2018-11-20T07:51:48.007Z,14.77
2018-11-20T07:54:47.442Z,15.20
2018-11-20T07:57:50.273Z,15.07
2018-11-20T08:00:49.896Z,16.00
2018-11-20T08:03:38.210Z,15.73
2018-11-20T08:06:45.499Z,15.53
2018-11-20T08:09:40.424Z,16.77
2018-11-20T08:12:37.696Z,16.67
2018-11-20T08:15:33.628Z,16.37
2018-11-20T08:18:40.838Z,16.77
2018-11-20T08:21:48.134Z,17.17
2018-11-20T08:24:55.434Z,16.90
2018-11-20T08:28:02.728Z,17.47
2018-11-20T08:31:10.091Z,17.67
2018-11-20T08:34:17.363Z,18.30
2018-11-20T08:37:24.593Z,17.97
2018-11-20T08:40:31.890Z,17.13
2018-11-20T08:43:39.198Z,19.73
2018-11-20T08:46:46.476Z,19.70
2018-11-20T08:49:53.782Z,18.77
2018-11-20T08:53:01.163Z,17.37
2018-11-20T08:56:08.372Z,18.37
2018-11-20T08:59:15.670Z,18.83
2018-11-20T09:02:23.055Z,18.27
2018-11-20T09:05:20.577Z,18.10
2018-11-20T09:08:19.373Z,18.03
2018-11-20T09:11:26.648Z,17.47
2018-11-20T09:14:33.946Z,17.73
2018-11-20T09:17:41.243Z,17.63
2018-11-20T09:20:48.542Z,18.17
2018-11-20T09:24:25.540Z,18.00
2018-11-20T09:27:21.939Z,18.33
2018-11-20T09:30:22.273Z,18.20
2018-11-20T09:33:22.429Z,18.07
2018-11-20T09:39:09.164Z,18.63
2018-11-20T09:42:16.058Z,17.03
2018-11-20T09:45:42.341Z,16.60
2018-11-20T09:48:49.239Z,17.97
2018-11-20T09:51:56.117Z,17.40
2018-11-20T09:55:03.020Z,17.67
2018-11-20T09:58:09.889Z,17.87
2018-11-20T10:04:21.417Z,16.53
2018-11-20T10:07:28.285Z,17.30
2018-11-20T10:10:35.173Z,16.90
2018-11-20T10:13:35.058Z,16.77
2018-11-20T10:16:41.953Z,15.93
2018-11-20T10:19:48.868Z,17.30
2018-11-20T10:22:55.737Z,15.50
2018-11-20T10:26:02.787Z,16.93
2018-11-20T10:29:09.606Z,16.57
2018-11-20T10:32:14.949Z,16.87
2018-11-20T10:35:21.861Z,17.20
2018-11-20T10:38:28.732Z,15.90
2018-11-20T10:41:35.869Z,16.97
2018-11-20T10:44:42.757Z,17.20
2018-11-20T10:47:49.633Z,17.30
2018-11-20T10:50:56.541Z,16.47
2018-11-20T10:54:03.410Z,17.13
2018-11-20T10:57:10.307Z,17.63
2018-11-20T11:00:17.264Z,16.57
2018-11-20T11:03:24.117Z,16.37
2018-11-20T11:06:31.217Z,16.17
2018-11-20T11:09:21.643Z,15.63
2018-11-20T11:12:28.567Z,16.57
2018-11-20T11:15:35.419Z,15.03
2018-11-20T11:18:42.298Z,15.87
2018-11-20T11:21:49.191Z,16.03
2018-11-20T11:24:56.092Z,16.13
2018-11-20T11:28:02.968Z,15.97
2018-11-20T11:31:09.869Z,16.57
2018-11-20T11:34:16.763Z,15.03
2018-11-20T11:37:23.984Z,17.43
2018-11-20T11:40:30.905Z,15.13
2018-11-20T11:43:37.812Z,15.47
2018-11-20T11:46:44.704Z,15.60
2018-11-20T11:49:51.599Z,16.20
2018-11-20T11:52:58.476Z,15.80
2018-11-20T11:56:05.404Z,17.00
2018-11-20T11:59:12.296Z,17.03
2018-11-20T12:05:25.395Z,16.47
2018-11-20T12:08:32.270Z,17.70
2018-11-20T12:11:39.167Z,16.00
2018-11-20T12:14:46.062Z,16.33
2018-11-20T12:17:52.946Z,16.63
2018-11-20T12:20:49.177Z,16.73
2018-11-20T12:23:56.104Z,16.30
2018-11-20T12:27:04.426Z,16.30
2018-11-20T12:30:09.891Z,17.30
2018-11-20T12:33:16.784Z,17.97
2018-11-20T12:36:16.746Z,16.57
2018-11-20T12:39:25.917Z,17.07
2018-11-20T12:42:32.836Z,16.93
2018-11-20T12:45:45.745Z,16.80
2018-11-20T12:48:52.618Z,15.97
2018-11-20T12:51:49.040Z,17.37
2018-11-20T12:54:55.635Z,16.17
2018-11-20T12:57:43.099Z,15.93
2018-11-20T13:00:49.990Z,16.10
2018-11-20T13:03:56.897Z,15.90
2018-11-20T13:07:05.204Z,17.37
2018-11-20T13:10:10.661Z,17.27
2018-11-20T13:13:18.126Z,16.77
2018-11-20T13:16:24.454Z,17.83
2018-11-20T13:19:33.261Z,16.43
2018-11-20T13:22:39.653Z,16.10
2018-11-20T13:25:45.151Z,17.43
2018-11-20T13:28:52.023Z,16.87
2018-11-20T13:31:58.916Z,17.50
2018-11-20T13:35:05.789Z,18.00
2018-11-20T13:38:13.816Z,17.60
2018-11-20T13:41:39.949Z,16.37
2018-11-20T13:44:47.059Z,18.80
2018-11-20T13:47:54.006Z,18.90
2018-11-20T13:51:03.179Z,17.70
2018-11-20T13:54:11.814Z,18.40
2018-11-20T13:57:16.905Z,17.70
2018-11-20T14:00:23.891Z,19.27
2018-11-20T14:03:30.855Z,18.60
2018-11-20T14:06:37.760Z,17.97
2018-11-20T14:09:44.672Z,18.87
2018-11-20T14:12:51.609Z,17.83
2018-11-20T14:15:58.545Z,18.77
2018-11-20T14:19:05.471Z,17.23
2018-11-20T14:22:12.363Z,18.23
2018-11-20T14:25:19.384Z,19.53
2018-11-20T14:28:26.280Z,18.63
2018-11-20T14:31:33.180Z,18.50
2018-11-20T14:34:40.074Z,19.90
2018-11-20T14:37:46.991Z,18.53
2018-11-20T14:40:53.906Z,19.13
2018-11-20T14:44:00.789Z,19.33
2018-11-20T14:47:07.709Z,19.33
2018-11-20T14:50:14.580Z,19.30
2018-11-20T14:53:21.483Z,20.30
2018-11-20T14:56:28.376Z,20.13
2018-11-20T14:59:35.240Z,20.23
2018-11-20T15:02:42.134Z,20.13
2018-11-20T15:05:49.003Z,22.00
2018-11-20T15:08:55.899Z,22.17
2018-11-20T15:12:02.800Z,22.37
2018-11-20T15:15:09.675Z,21.47
2018-11-20T15:18:16.568Z,20.93
2018-11-20T15:21:23.466Z,22.40
2018-11-20T15:24:30.342Z,22.47
2018-11-20T15:27:37.241Z,21.53
2018-11-20T15:30:35.908Z,20.37
2018-11-20T15:33:42.907Z,20.33
2018-11-20T15:36:42.736Z,21.33
2018-11-20T15:39:48.507Z,22.17
2018-11-20T15:42:55.472Z,20.13
2018-11-20T15:49:34.845Z,20.13
2018-11-20T15:52:23.717Z,22.40
2018-11-20T15:55:30.788Z,20.67
2018-11-20T15:58:37.741Z,19.47
2018-11-20T16:01:44.893Z,19.77
2018-11-20T16:04:51.776Z,21.80
2018-11-20T16:07:57.143Z,22.70
2018-11-20T16:11:04.020Z,22.00
2018-11-20T16:14:10.936Z,21.60
2018-11-20T16:17:17.870Z,18.17
2018-11-20T16:20:25.538Z,20.53
2018-11-20T16:23:32.488Z,21.97
2018-11-20T16:26:39.342Z,21.00
2018-11-20T16:29:46.283Z,21.00
2018-11-20T16:32:53.227Z,20.90
2018-11-20T16:36:02.983Z,19.10
2018-11-20T16:39:07.033Z,19.13
2018-11-20T16:42:13.971Z,18.37
2018-11-20T16:45:20.890Z,23.37
2018-11-20T16:48:27.787Z,20.93
2018-11-20T16:51:34.659Z,18.93
2018-11-20T16:54:41.568Z,21.40
2018-11-20T16:57:47.217Z,17.17
2018-11-20T17:00:47.223Z,24.07
2018-11-20T17:03:53.376Z,22.07
2018-11-20T17:06:53.314Z,24.10
2018-11-20T17:09:59.558Z,25.17
2018-11-20T17:12:59.526Z,28.23
2018-11-20T17:15:59.143Z,23.13
2018-11-20T17:18:59.087Z,25.57
2018-11-20T17:21:58.858Z,22.47
2018-11-20T17:24:58.822Z,28.47
2018-11-20T17:28:01.997Z,35.87
2018-11-20T17:31:01.850Z,28.80
2018-11-20T17:34:04.284Z,27.70
2018-11-20T17:37:04.544Z,23.53
2018-11-20T17:40:05.092Z,28.97
2018-11-20T17:43:10.706Z,27.07
2018-11-20T17:45:57.980Z,26.03
2018-11-20T17:48:58.133Z,25.27
2018-11-20T17:52:04.444Z,25.23
2018-11-20T17:55:04.425Z,28.03
2018-11-20T17:58:10.439Z,26.63
2018-11-20T18:01:10.777Z,25.87
2018-11-20T18:04:06.067Z,28.17
2018-11-20T18:07:06.084Z,23.73
2018-11-20T18:09:54.851Z,29.00
2018-11-20T18:12:50.360Z,25.90
2018-11-20T18:15:50.465Z,27.77
2018-11-20T18:18:50.551Z,25.80
2018-11-20T18:21:50.503Z,26.87
2018-11-20T18:24:50.300Z,20.60
2018-11-20T18:27:50.311Z,26.40
2018-11-20T18:30:55.722Z,25.90
2018-11-20T18:33:55.985Z,24.47
2018-11-20T18:36:48.770Z,20.23
2018-11-20T18:39:48.654Z,23.40
2018-11-20T18:42:48.826Z,24.90
2018-11-20T18:45:48.599Z,23.63
2018-11-20T18:51:52.998Z,24.73
2018-11-20T18:54:52.980Z,26.07
2018-11-20T18:57:53.013Z,26.07
2018-11-20T19:00:53.100Z,24.10
2018-11-20T19:03:53.232Z,26.33
2018-11-20T19:06:53.204Z,28.87
2018-11-20T19:09:52.937Z,26.93
2018-11-20T19:12:52.857Z,24.47
2018-11-20T19:15:52.400Z,24.80
2018-11-20T19:18:58.251Z,21.60
2018-11-20T19:21:58.213Z,27.87
2018-11-20T19:24:57.781Z,26.17
2018-11-20T19:27:47.753Z,29.30
2018-11-20T19:30:47.628Z,29.07
2018-11-20T19:33:47.381Z,28.33
2018-11-20T19:36:47.110Z,27.83
2018-11-20T19:39:47.370Z,27.73
2018-11-20T19:42:38.060Z,27.07
2018-11-20T19:45:37.572Z,28.03
2018-11-20T19:48:37.280Z,28.00
2018-11-20T19:51:37.281Z,25.87
2018-11-20T19:54:37.064Z,28.20
2018-11-20T19:57:37.065Z,28.37
2018-11-20T20:00:37.011Z,30.67
2018-11-20T20:03:37.153Z,24.60
2018-11-20T20:06:36.851Z,27.27
2018-11-20T20:09:36.505Z,23.00
2018-11-20T20:12:36.322Z,24.90
2018-11-20T20:15:39.557Z,27.63
2018-11-20T20:18:46.010Z,25.97
2018-11-20T20:21:45.488Z,22.37
2018-11-20T20:24:45.137Z,23.17
2018-11-20T20:27:45.101Z,27.40
2018-11-20T20:30:45.117Z,24.40
2018-11-20T20:33:45.389Z,26.30
2018-11-20T20:36:45.066Z,27.50
2018-11-20T20:39:51.505Z,26.63
2018-11-20T20:42:51.281Z,26.73
2018-11-20T20:45:50.883Z,25.63
2018-11-20T20:48:51.051Z,24.87
2018-11-20T20:51:44.373Z,26.57
2018-11-20T20:54:43.910Z,25.87
2018-11-20T20:57:33.973Z,25.47
2018-11-20T21:00:34.209Z,26.80
2018-11-20T21:03:33.909Z,25.57
2018-11-20T21:06:33.751Z,25.23
2018-11-20T21:09:33.358Z,26.07
2018-11-20T21:12:33.031Z,24.17
2018-11-20T21:15:36.240Z,26.43
2018-11-20T21:18:36.441Z,24.73
2018-11-20T21:21:36.613Z,22.87
2018-11-20T21:24:23.704Z,25.93
2018-11-20T21:27:23.805Z,21.80
2018-11-20T21:30:24.001Z,24.97
2018-11-20T21:33:29.359Z,21.23
2018-11-20T21:36:16.895Z,22.53
2018-11-20T21:39:17.122Z,25.90
2018-11-20T21:42:07.039Z,21.73
2018-11-20T21:45:07.244Z,23.53
2018-11-20T21:48:07.605Z,22.37
2018-11-20T21:51:07.186Z,24.60
2018-11-20T21:54:07.475Z,25.70
2018-11-20T21:57:07.148Z,24.63
2018-11-20T22:00:10.237Z,20.10
2018-11-20T22:03:10.535Z,20.20
2018-11-20T22:06:10.408Z,23.40
2018-11-20T22:09:16.318Z,21.67
2018-11-20T22:12:16.393Z,23.37
2018-11-20T22:15:19.403Z,21.20
2018-11-20T22:18:19.481Z,21.00
2018-11-20T22:21:21.943Z,21.67
2018-11-20T22:24:21.441Z,22.40
2018-11-20T22:27:24.206Z,23.77
2018-11-20T22:30:11.261Z,22.70
2018-11-20T22:33:11.059Z,22.63
2018-11-20T22:36:14.518Z,22.47
2018-11-20T22:39:03.801Z,19.93
2018-11-20T22:42:06.961Z,18.87
2018-11-20T22:45:06.485Z,20.37
2018-11-20T22:48:06.196Z,20.93
2018-11-20T22:51:06.251Z,19.80
2018-11-20T22:54:05.805Z,17.17
2018-11-20T22:57:12.038Z,17.37
2018-11-20T23:00:14.927Z,14.20
2018-11-20T23:03:04.426Z,17.80
2018-11-20T23:06:04.685Z,18.07
2018-11-20T23:08:45.643Z,19.77
2018-11-20T23:11:26.873Z,19.13
2018-11-20T23:14:07.899Z,22.27
2018-11-20T23:16:48.853Z,20.57
2018-11-20T23:19:30.033Z,22.10
2018-11-20T23:22:10.810Z,21.27
2018-11-20T23:24:51.144Z,21.40
2018-11-20T23:27:31.815Z,16.23
2018-11-20T23:30:13.866Z,21.80
2018-11-20T23:32:54.898Z,18.43
2018-11-20T23:35:36.019Z,18.07
2018-11-20T23:38:16.350Z,19.67
2018-11-20T23:40:57.042Z,19.87
2018-11-20T23:43:37.666Z,20.40
2018-11-20T23:46:18.030Z,20.07
2018-11-20T23:48:58.618Z,19.00
2018-11-20T23:51:39.180Z,20.43
2018-11-20T23:54:20.349Z,19.17
2018-11-20T23:57:00.771Z,14.43
2018-11-20T23:59:41.690Z,19.00
